Details From RJGG - Chubu Centrair Intl
To RJSN - Niigata
Flight Number -
Tags Decoded
Created
Modified
Stats Distance 217 nm / 402 km
Max Altitude 0 ft / 0 m
Waypoints 4
Social Downloads 2
Likes 0
Share VATSIM

Download

Looking for another format? Having issues loading an existing format? Contact us
Advertisement - Login to hide

Notes

Decoded

Route

RJGG KCC NAEBA RJSN

ID Type Via Altitude Latitude Longitude Leg Dist Tot Dist Heading (true) Name
O RJGG APT - 0 ft / 0 m 34.87389˚ 136.80168˚ - 0 nm - -
KCC VOR - 0 ft / 0 m 35.26527˚ 136.91493˚ 24 nm 24 nm 13° / 13° NAGOYA VORTAC
NAEBA FIX - 0 ft / 0 m 37.25414˚ 138.53572˚ 142 nm 167 nm 33° / 34° -
O RJSN APT - 0 ft / 0 m 37.94826˚ 139.11467˚ 49 nm 217 nm 33° / 34° NIIGATA

Altitude Profile

Advertisement - Login to hide

Weather


0- 5 10 15 20 25 30 35+ Temperature / ° C

Clouds and Precipitation
Forecast for 2017-12-13 06:00 UTC. Updated 38 minutes ago

Ground ~20,000 ft ~40,000 ft Winds

RJGG

Details ICAO RJGG (NGO)
Name CHUBU CENTRAIR INTL
Region Japan
Timezone Asia/Tokyo (UTC+9.0)
Stats Elevation 15 ft / 5 m (AMSL)
Location 34.858414° 136.805408°
Runways 1
Magnetic Variation 7.580° W

METAR

RJGG 130530Z 31019KT 9999 FEW025 BKN045 08/M00 Q1016 NOSIG

Decode

TAF

TAF RJGG 130505Z 1306/1412 32020KT 9999 FEW020 SCT040

Decode

Departure Runways

ID Width Length Bearing (true) Bearing (mag) Surface Threshold Offset Overrun Length
18 197 ft / 60 m 11,511 ft / 3,509 m 168.81° 176.39° Asphalt 0 ft / 0 m 197 ft / 60 m
36 197 ft / 60 m 11,511 ft / 3,509 m 348.81° 356.39° Asphalt 0 ft / 0 m 197 ft / 60 m

RJSN

Details ICAO RJSN (KIJ)
Name NIIGATA
Region Japan
Timezone Asia/Tokyo (UTC+9.0)
Stats Elevation 29 ft / 9 m (AMSL)
Location 37.954803° 139.114228°
Runways 2
Magnetic Variation 8.302° W

METAR

RJSN 130504Z 30016G27KT 9999 VCSH FEW020 SCT030 BKN040 03/M03 Q1015 RMK 2CU020 3CU030 6CU040 A2998

Decode

TAF

TAF RJSN 130505Z 1306/1412 29024G34KT 6000 -SHSN FEW015 BKN030 TEMPO 1306/1309 4000 -SHSNGS FEW008 BKN015 FEW020CB TEMPO 1309/1315 3000 -SHSNGS FEW008 BKN015 FEW020CB TEMPO 1315/1321 3000 -SHSN BECMG 1406/1409 28014KT

Decode

Destination Runways

ID Width Length Bearing (true) Bearing (mag) Surface Threshold Offset Overrun Length
04 150 ft / 46 m 4,321 ft / 1,317 m 31.80° 40.10° Asphalt 0 ft / 0 m 200 ft / 61 m
10 150 ft / 46 m 8,185 ft / 2,495 m 92.69° 100.99° Asphalt 0 ft / 0 m 200 ft / 61 m
22 150 ft / 46 m 4,321 ft / 1,317 m 211.80° 220.10° Asphalt 0 ft / 0 m 200 ft / 61 m
28 150 ft / 46 m 8,185 ft / 2,495 m 272.70° 281.00° Asphalt 0 ft / 0 m 200 ft / 61 m

Approach Navaids

Runway Type Ident Frequency Range Bearing (true) Bearing (mag) Slope Elevation
28 Localiser INC 109.30 MHz 18 nm / 33 km 272.69° 280.99° - 33 ft / 10 m (AMSL)
28 Glidescope INC 109.30 MHz 10 nm / 19 km 272.70° 281.00° 3.00° 58 ft / 18 m (AMSL)
28 DME INC 109.30 MHz 18 nm / 33 km - - - 33 ft / 10 m (AMSL)

Popular Alternatives